sensor_id;sensor_type;location;lat;lon;timestamp;pressure;altitude;pressure_sealevel;temperature;humidity
72558;BME280;60583;50.094;8.748;2023-04-10T00:01:18;101221.69;;;7.61;65.20
72558;BME280;60583;50.094;8.748;2023-04-10T00:03:43;101182.66;;;7.46;65.74
72558;BME280;60583;50.094;8.748;2023-04-10T00:06:09;101212.06;;;7.52;65.94
72558;BME280;60583;50.094;8.748;2023-04-10T00:08:34;101213.16;;;7.42;67.54
72558;BME280;60583;50.094;8.748;2023-04-10T00:11:00;101212.63;;;7.13;68.93
72558;BME280;60583;50.094;8.748;2023-04-10T00:13:25;101234.91;;;7.20;69.06
72558;BME280;60583;50.094;8.748;2023-04-10T00:15:51;101158.56;;;6.80;69.81
72558;BME280;60583;50.094;8.748;2023-04-10T00:18:16;101234.56;;;7.23;69.15
72558;BME280;60583;50.094;8.748;2023-04-10T00:20:42;101238.06;;;7.23;69.56
72558;BME280;60583;50.094;8.748;2023-04-10T00:23:08;101230.75;;;7.17;69.56
72558;BME280;60583;50.094;8.748;2023-04-10T00:25:33;101232.97;;;7.04;69.87
72558;BME280;60583;50.094;8.748;2023-04-10T00:27:59;101214.88;;;6.99;70.08
72558;BME280;60583;50.094;8.748;2023-04-10T00:30:24;101218.13;;;6.93;70.58
72558;BME280;60583;50.094;8.748;2023-04-10T00:32:50;101236.59;;;7.03;70.75
72558;BME280;60583;50.094;8.748;2023-04-10T00:35:15;101218.22;;;6.84;70.58
72558;BME280;60583;50.094;8.748;2023-04-10T00:37:41;101246.16;;;6.96;71.23
72558;BME280;60583;50.094;8.748;2023-04-10T00:40:07;101231.97;;;6.79;71.34
72558;BME280;60583;50.094;8.748;2023-04-10T00:42:32;101219.41;;;6.64;71.68
72558;BME280;60583;50.094;8.748;2023-04-10T00:44:58;101241.09;;;6.67;72.16
72558;BME280;60583;50.094;8.748;2023-04-10T00:47:25;101227.19;;;6.65;71.82
72558;BME280;60583;50.094;8.748;2023-04-10T00:49:52;101230.97;;;6.63;71.42
72558;BME280;60583;50.094;8.748;2023-04-10T00:52:17;101207.97;;;6.46;71.05
72558;BME280;60583;50.094;8.748;2023-04-10T00:54:43;101226.72;;;6.52;71.62
72558;BME280;60583;50.094;8.748;2023-04-10T00:57:09;101210.25;;;6.40;70.99
72558;BME280;60583;50.094;8.748;2023-04-10T00:59:35;101219.47;;;6.36;71.38
72558;BME280;60583;50.094;8.748;2023-04-10T01:02:01;101202.28;;;6.23;71.26
72558;BME280;60583;50.094;8.748;2023-04-10T01:04:27;101220.44;;;6.35;71.82
72558;BME280;60583;50.094;8.748;2023-04-10T01:07:13;101237.03;;;6.37;71.91
72558;BME280;60583;50.094;8.748;2023-04-10T01:09:52;101223.19;;;6.43;71.13
72558;BME280;60583;50.094;8.748;2023-04-10T01:12:32;101202.50;;;6.29;71.61
72558;BME280;60583;50.094;8.748;2023-04-10T01:15:09;101210.81;;;6.34;71.26
72558;BME280;60583;50.094;8.748;2023-04-10T01:20:28;101231.25;;;6.24;72.02
72558;BME280;60583;50.094;8.748;2023-04-10T01:30:45;101218.72;;;5.99;73.15
72558;BME280;60583;50.094;8.748;2023-04-10T01:33:12;101239.16;;;6.07;73.33
72558;BME280;60583;50.094;8.748;2023-04-10T01:35:42;101239.50;;;6.04;73.60
72558;BME280;60583;50.094;8.748;2023-04-10T01:38:09;101241.97;;;6.05;73.80
72558;BME280;60583;50.094;8.748;2023-04-10T01:40:37;101229.56;;;6.06;73.24
72558;BME280;60583;50.094;8.748;2023-04-10T01:43:05;101246.91;;;6.18;72.75
72558;BME280;60583;50.094;8.748;2023-04-10T01:45:32;101234.13;;;6.13;72.62
72558;BME280;60583;50.094;8.748;2023-04-10T01:47:58;101225.69;;;6.00;72.77
72558;BME280;60583;50.094;8.748;2023-04-10T01:50:25;101225.94;;;6.07;73.06
72558;BME280;60583;50.094;8.748;2023-04-10T01:52:53;101242.25;;;6.02;73.02
72558;BME280;60583;50.094;8.748;2023-04-10T01:55:23;101211.91;;;5.97;73.24
72558;BME280;60583;50.094;8.748;2023-04-10T01:57:48;101229.47;;;5.98;73.90
72558;BME280;60583;50.094;8.748;2023-04-10T02:00:16;101206.69;;;5.87;73.15
72558;BME280;60583;50.094;8.748;2023-04-10T02:02:42;101229.78;;;5.95;73.54
72558;BME280;60583;50.094;8.748;2023-04-10T02:05:08;101217.75;;;6.00;73.63
72558;BME280;60583;50.094;8.748;2023-04-10T02:07:43;101211.44;;;5.84;73.64
72558;BME280;60583;50.094;8.748;2023-04-10T02:10:35;101166.19;;;5.50;73.64
72558;BME280;60583;50.094;8.748;2023-04-10T02:13:05;101203.84;;;5.61;74.46
72558;BME280;60583;50.094;8.748;2023-04-10T02:15:32;101219.25;;;5.85;74.38
72558;BME280;60583;50.094;8.748;2023-04-10T02:17:59;101139.84;;;5.31;74.49
72558;BME280;60583;50.094;8.748;2023-04-10T02:20:29;101200.63;;;5.67;74.95
72558;BME280;60583;50.094;8.748;2023-04-10T02:22:57;101181.88;;;5.61;74.58
72558;BME280;60583;50.094;8.748;2023-04-10T02:25:26;101198.84;;;5.95;74.10
72558;BME280;60583;50.094;8.748;2023-04-10T02:27:52;101211.50;;;6.01;74.71
72558;BME280;60583;50.094;8.748;2023-04-10T02:30:17;101207.47;;;5.97;75.18
72558;BME280;60583;50.094;8.748;2023-04-10T02:32:43;101200.28;;;5.90;74.54
72558;BME280;60583;50.094;8.748;2023-04-10T02:35:08;101193.03;;;5.82;74.89
72558;BME280;60583;50.094;8.748;2023-04-10T02:37:33;101185.50;;;5.87;74.44
72558;BME280;60583;50.094;8.748;2023-04-10T02:40:00;101215.13;;;6.00;74.38
72558;BME280;60583;50.094;8.748;2023-04-10T02:42:26;101196.88;;;5.97;74.08
72558;BME280;60583;50.094;8.748;2023-04-10T02:44:51;101209.16;;;5.98;74.01
72558;BME280;60583;50.094;8.748;2023-04-10T02:47:17;101202.44;;;6.04;73.77
72558;BME280;60583;50.094;8.748;2023-04-10T02:49:43;101185.44;;;5.97;73.58
72558;BME280;60583;50.094;8.748;2023-04-10T02:52:08;101176.69;;;5.96;73.59
72558;BME280;60583;50.094;8.748;2023-04-10T02:54:33;101196.31;;;6.21;72.74
72558;BME280;60583;50.094;8.748;2023-04-10T02:56:59;101209.19;;;6.33;72.37
72558;BME280;60583;50.094;8.748;2023-04-10T02:59:26;101210.31;;;6.31;72.43
72558;BME280;60583;50.094;8.748;2023-04-10T03:01:51;101165.75;;;6.09;72.73
72558;BME280;60583;50.094;8.748;2023-04-10T03:04:17;101185.03;;;6.19;72.99
72558;BME280;60583;50.094;8.748;2023-04-10T03:06:43;101194.78;;;6.18;73.24
72558;BME280;60583;50.094;8.748;2023-04-10T03:09:09;101188.06;;;6.06;73.72
72558;BME280;60583;50.094;8.748;2023-04-10T03:11:35;101200.69;;;6.12;73.70
72558;BME280;60583;50.094;8.748;2023-04-10T03:14:00;101139.25;;;5.64;74.58
72558;BME280;60583;50.094;8.748;2023-04-10T03:16:26;101170.81;;;5.75;74.30
72558;BME280;60583;50.094;8.748;2023-04-10T03:18:52;101191.06;;;5.84;74.74
72558;BME280;60583;50.094;8.748;2023-04-10T03:21:17;101192.19;;;5.81;75.01
72558;BME280;60583;50.094;8.748;2023-04-10T03:23:43;101168.06;;;5.67;74.96
72558;BME280;60583;50.094;8.748;2023-04-10T03:26:09;101144.16;;;5.59;74.47
72558;BME280;60583;50.094;8.748;2023-04-10T03:28:34;101190.84;;;5.77;74.95
72558;BME280;60583;50.094;8.748;2023-04-10T03:31:04;101186.56;;;5.67;75.04
72558;BME280;60583;50.094;8.748;2023-04-10T03:33:30;101175.94;;;5.49;75.70
72558;BME280;60583;50.094;8.748;2023-04-10T03:35:56;101183.44;;;5.54;75.70
72558;BME280;60583;50.094;8.748;2023-04-10T03:38:22;101163.16;;;5.45;75.21
72558;BME280;60583;50.094;8.748;2023-04-10T03:40:48;101151.50;;;5.38;75.80
72558;BME280;60583;50.094;8.748;2023-04-10T03:43:13;101155.81;;;5.39;75.76
72558;BME280;60583;50.094;8.748;2023-04-10T03:45:39;101170.13;;;5.46;75.63
72558;BME280;60583;50.094;8.748;2023-04-10T03:48:04;101177.34;;;5.44;76.15
72558;BME280;60583;50.094;8.748;2023-04-10T03:50:30;101157.94;;;5.35;76.27
72558;BME280;60583;50.094;8.748;2023-04-10T03:52:56;101147.69;;;5.23;76.03
72558;BME280;60583;50.094;8.748;2023-04-10T03:55:21;101171.78;;;5.47;76.06
72558;BME280;60583;50.094;8.748;2023-04-10T03:57:47;101167.47;;;5.46;75.86
72558;BME280;60583;50.094;8.748;2023-04-10T04:00:14;101171.78;;;5.47;75.97
72558;BME280;60583;50.094;8.748;2023-04-10T04:02:41;101130.75;;;5.15;75.62
72558;BME280;60583;50.094;8.748;2023-04-10T04:05:07;101163.66;;;5.31;75.78
72558;BME280;60583;50.094;8.748;2023-04-10T04:07:33;101154.38;;;5.17;76.08
72558;BME280;60583;50.094;8.748;2023-04-10T04:09:58;101149.38;;;5.14;76.24
72558;BME280;60583;50.094;8.748;2023-04-10T04:12:25;101175.34;;;5.28;76.56
72558;BME280;60583;50.094;8.748;2023-04-10T04:14:50;101160.66;;;5.06;76.58
72558;BME280;60583;50.094;8.748;2023-04-10T04:17:16;101154.84;;;5.03;77.68
72558;BME280;60583;50.094;8.748;2023-04-10T04:19:42;101144.69;;;5.08;76.60
72558;BME280;60583;50.094;8.748;2023-04-10T04:22:07;101166.88;;;5.25;76.91
72558;BME280;60583;50.094;8.748;2023-04-10T04:24:32;101169.50;;;5.25;77.12
72558;BME280;60583;50.094;8.748;2023-04-10T04:26:58;101142.75;;;5.00;78.40
72558;BME280;60583;50.094;8.748;2023-04-10T04:29:23;101143.19;;;4.96;78.35
72558;BME280;60583;50.094;8.748;2023-04-10T04:31:49;101101.53;;;4.80;77.96
72558;BME280;60583;50.094;8.748;2023-04-10T04:34:15;101159.91;;;5.24;77.50
72558;BME280;60583;50.094;8.748;2023-04-10T04:36:40;101147.16;;;5.09;77.40
72558;BME280;60583;50.094;8.748;2023-04-10T04:39:06;101172.63;;;5.10;78.40
72558;BME280;60583;50.094;8.748;2023-04-10T04:41:32;101147.75;;;5.03;77.80
72558;BME280;60583;50.094;8.748;2023-04-10T04:43:59;101174.56;;;5.18;77.54
72558;BME280;60583;50.094;8.748;2023-04-10T04:46:25;101167.09;;;5.31;77.53
72558;BME280;60583;50.094;8.748;2023-04-10T04:48:50;101141.34;;;4.96;77.39
72558;BME280;60583;50.094;8.748;2023-04-10T04:51:16;101144.13;;;5.04;77.22
72558;BME280;60583;50.094;8.748;2023-04-10T04:53:41;101140.78;;;5.02;76.94
72558;BME280;60583;50.094;8.748;2023-04-10T04:56:07;101146.38;;;4.99;77.48
72558;BME280;60583;50.094;8.748;2023-04-10T04:58:33;101154.00;;;5.02;77.57
72558;BME280;60583;50.094;8.748;2023-04-10T05:00:59;101148.88;;;4.91;77.23
72558;BME280;60583;50.094;8.748;2023-04-10T05:03:25;101176.91;;;5.11;77.52
72558;BME280;60583;50.094;8.748;2023-04-10T05:05:55;101181.44;;;4.92;77.72
72558;BME280;60583;50.094;8.748;2023-04-10T05:08:20;101096.72;;;4.47;77.92
72558;BME280;60583;50.094;8.748;2023-04-10T05:10:47;101133.38;;;4.69;77.83
72558;BME280;60583;50.094;8.748;2023-04-10T05:13:12;101070.22;;;4.29;78.25
72558;BME280;60583;50.094;8.748;2023-04-10T05:15:38;101175.16;;;5.02;77.89
72558;BME280;60583;50.094;8.748;2023-04-10T05:18:04;101184.84;;;5.11;77.48
72558;BME280;60583;50.094;8.748;2023-04-10T05:20:29;101186.53;;;5.12;77.44
72558;BME280;60583;50.094;8.748;2023-04-10T05:22:55;101126.53;;;4.76;77.80
72558;BME280;60583;50.094;8.748;2023-04-10T05:25:22;101176.88;;;5.21;77.94
72558;BME280;60583;50.094;8.748;2023-04-10T05:27:47;101161.78;;;5.13;77.98
72558;BME280;60583;50.094;8.748;2023-04-10T05:30:13;101147.84;;;5.11;77.89
72558;BME280;60583;50.094;8.748;2023-04-10T05:32:38;101176.00;;;5.40;77.15
72558;BME280;60583;50.094;8.748;2023-04-10T05:35:04;101183.63;;;5.43;76.87
72558;BME280;60583;50.094;8.748;2023-04-10T05:37:30;101186.28;;;5.43;77.17
72558;BME280;60583;50.094;8.748;2023-04-10T05:39:55;101191.84;;;5.40;76.67
72558;BME280;60583;50.094;8.748;2023-04-10T05:42:21;101159.88;;;5.33;76.45
72558;BME280;60583;50.094;8.748;2023-04-10T05:44:46;101184.28;;;5.54;76.77
72558;BME280;60583;50.094;8.748;2023-04-10T05:47:12;101195.34;;;5.67;76.63
72558;BME280;60583;50.094;8.748;2023-04-10T05:49:37;101184.28;;;5.54;77.34
72558;BME280;60583;50.094;8.748;2023-04-10T05:52:03;101194.31;;;5.51;77.90
72558;BME280;60583;50.094;8.748;2023-04-10T05:54:28;101205.19;;;5.75;77.33
72558;BME280;60583;50.094;8.748;2023-04-10T05:56:54;101187.84;;;5.63;77.71
72558;BME280;60583;50.094;8.748;2023-04-10T05:59:19;101196.19;;;5.68;77.59
72558;BME280;60583;50.094;8.748;2023-04-10T06:01:45;101181.09;;;5.78;77.20
72558;BME280;60583;50.094;8.748;2023-04-10T06:04:11;101183.56;;;5.89;77.26
72558;BME280;60583;50.094;8.748;2023-04-10T06:06:37;101188.34;;;6.03;76.73
72558;BME280;60583;50.094;8.748;2023-04-10T06:09:03;101198.66;;;6.06;76.35
72558;BME280;60583;50.094;8.748;2023-04-10T06:11:28;101202.88;;;6.17;75.93
72558;BME280;60583;50.094;8.748;2023-04-10T06:13:53;101148.47;;;6.05;75.93
72558;BME280;60583;50.094;8.748;2023-04-10T06:16:19;101197.38;;;6.46;75.13
72558;BME280;60583;50.094;8.748;2023-04-10T06:18:45;101188.75;;;6.43;75.10
72558;BME280;60583;50.094;8.748;2023-04-10T06:21:12;101193.00;;;6.54;75.94
72558;BME280;60583;50.094;8.748;2023-04-10T06:23:37;101193.28;;;6.69;73.98
72558;BME280;60583;50.094;8.748;2023-04-10T06:26:03;101188.06;;;6.85;74.06
72558;BME280;60583;50.094;8.748;2023-04-10T06:28:28;101195.31;;;7.00;74.16
72558;BME280;60583;50.094;8.748;2023-04-10T06:30:54;101183.50;;;7.21;73.90
72558;BME280;60583;50.094;8.748;2023-04-10T06:33:19;101163.19;;;7.29;71.93
72558;BME280;60583;50.094;8.748;2023-04-10T06:35:45;101169.56;;;7.44;72.31
72558;BME280;60583;50.094;8.748;2023-04-10T06:38:10;101178.53;;;7.51;70.64
72558;BME280;60583;50.094;8.748;2023-04-10T06:40:36;101151.16;;;7.51;70.18
72558;BME280;60583;50.094;8.748;2023-04-10T06:43:02;101178.97;;;7.81;70.68
72558;BME280;60583;50.094;8.748;2023-04-10T06:45:27;101158.22;;;7.76;69.53
72558;BME280;60583;50.094;8.748;2023-04-10T06:47:53;101173.06;;;7.95;68.71
72558;BME280;60583;50.094;8.748;2023-04-10T06:50:18;101178.38;;;8.11;68.43
72558;BME280;60583;50.094;8.748;2023-04-10T06:52:45;101151.19;;;8.17;67.72
72558;BME280;60583;50.094;8.748;2023-04-10T06:55:10;101135.25;;;8.17;67.08
72558;BME280;60583;50.094;8.748;2023-04-10T06:57:37;101156.50;;;8.25;67.13
72558;BME280;60583;50.094;8.748;2023-04-10T07:00:04;101146.91;;;8.40;66.48
72558;BME280;60583;50.094;8.748;2023-04-10T07:02:30;101177.50;;;8.68;66.71
72558;BME280;60583;50.094;8.748;2023-04-10T07:04:55;101186.47;;;8.83;67.13
72558;BME280;60583;50.094;8.748;2023-04-10T07:07:21;101187.06;;;9.02;66.36
72558;BME280;60583;50.094;8.748;2023-04-10T07:09:47;101179.41;;;9.23;65.66
72558;BME280;60583;50.094;8.748;2023-04-10T07:12:12;101171.00;;;9.42;63.88
72558;BME280;60583;50.094;8.748;2023-04-10T07:14:38;101162.00;;;9.51;63.72
72558;BME280;60583;50.094;8.748;2023-04-10T07:17:03;101168.16;;;9.51;63.72
72558;BME280;60583;50.094;8.748;2023-04-10T07:19:29;101174.91;;;9.70;62.83
72558;BME280;60583;50.094;8.748;2023-04-10T07:21:55;101166.44;;;9.97;62.63
72558;BME280;60583;50.094;8.748;2023-04-10T07:24:21;101172.31;;;10.23;62.61
72558;BME280;60583;50.094;8.748;2023-04-10T07:26:47;101151.88;;;10.16;61.24
72558;BME280;60583;50.094;8.748;2023-04-10T07:29:13;101172.56;;;10.37;60.85
72558;BME280;60583;50.094;8.748;2023-04-10T07:31:38;101170.63;;;10.45;60.30
72558;BME280;60583;50.094;8.748;2023-04-10T07:34:04;101168.84;;;10.60;60.66
72558;BME280;60583;50.094;8.748;2023-04-10T07:36:30;101125.28;;;10.68;59.93
72558;BME280;60583;50.094;8.748;2023-04-10T07:38:57;101154.84;;;10.81;58.51
72558;BME280;60583;50.094;8.748;2023-04-10T07:41:22;101167.84;;;10.99;57.77
72558;BME280;60583;50.094;8.748;2023-04-10T07:43:48;101154.78;;;11.18;57.44
72558;BME280;60583;50.094;8.748;2023-04-10T07:46:15;101154.97;;;11.31;56.26
72558;BME280;60583;50.094;8.748;2023-04-10T07:48:41;101146.34;;;11.15;56.18
72558;BME280;60583;50.094;8.748;2023-04-10T07:51:07;101134.53;;;11.24;56.50
72558;BME280;60583;50.094;8.748;2023-04-10T07:53:37;101131.84;;;11.38;56.57
72558;BME280;60583;50.094;8.748;2023-04-10T07:56:03;101152.53;;;11.66;55.10
72558;BME280;60583;50.094;8.748;2023-04-10T07:58:28;101133.69;;;11.67;55.21
72558;BME280;60583;50.094;8.748;2023-04-10T08:00:54;101147.59;;;12.13;55.05
72558;BME280;60583;50.094;8.748;2023-04-10T08:03:19;101134.88;;;12.15;54.61
72558;BME280;60583;50.094;8.748;2023-04-10T08:05:45;101132.69;;;12.46;53.59
72558;BME280;60583;50.094;8.748;2023-04-10T08:08:11;101127.03;;;12.35;53.41
72558;BME280;60583;50.094;8.748;2023-04-10T08:10:36;101131.16;;;12.58;52.06
72558;BME280;60583;50.094;8.748;2023-04-10T08:13:03;101126.59;;;12.80;51.77
72558;BME280;60583;50.094;8.748;2023-04-10T08:15:29;101129.25;;;12.80;51.80
72558;BME280;60583;50.094;8.748;2023-04-10T08:17:54;101096.75;;;12.83;51.03
72558;BME280;60583;50.094;8.748;2023-04-10T08:20:20;101099.28;;;12.91;49.96
72558;BME280;60583;50.094;8.748;2023-04-10T08:22:45;101117.81;;;12.93;50.63
72558;BME280;60583;50.094;8.748;2023-04-10T08:25:11;101107.59;;;13.03;49.17
72558;BME280;60583;50.094;8.748;2023-04-10T08:27:36;101116.38;;;13.24;49.38
72558;BME280;60583;50.094;8.748;2023-04-10T08:30:02;101114.78;;;13.30;48.80
72558;BME280;60583;50.094;8.748;2023-04-10T08:32:28;101123.56;;;13.52;48.81
72558;BME280;60583;50.094;8.748;2023-04-10T08:34:55;101082.34;;;13.59;48.00
72558;BME280;60583;50.094;8.748;2023-04-10T08:37:20;101104.25;;;13.82;47.62
72558;BME280;60583;50.094;8.748;2023-04-10T08:39:46;101098.97;;;14.08;47.48
72558;BME280;60583;50.094;8.748;2023-04-10T08:42:11;101100.38;;;13.98;47.69
72558;BME280;60583;50.094;8.748;2023-04-10T08:44:37;101066.75;;;13.95;47.83
72558;BME280;60583;50.094;8.748;2023-04-10T08:47:04;101070.78;;;14.32;47.04
72558;BME280;60583;50.094;8.748;2023-04-10T08:52:13;101065.16;;;14.80;45.44
72558;BME280;60583;50.094;8.748;2023-04-10T08:54:42;101087.69;;;14.52;45.56
72558;BME280;60583;50.094;8.748;2023-04-10T08:57:11;101074.25;;;14.72;45.23
72558;BME280;60583;50.094;8.748;2023-04-10T08:59:42;101063.63;;;15.03;44.29
72558;BME280;60583;50.094;8.748;2023-04-10T09:02:07;101041.78;;;15.00;44.26
72558;BME280;60583;50.094;8.748;2023-04-10T09:04:33;101059.50;;;15.01;43.22
72558;BME280;60583;50.094;8.748;2023-04-10T09:06:59;101051.84;;;15.17;43.02
72558;BME280;60583;50.094;8.748;2023-04-10T09:09:24;101033.88;;;15.11;42.86
72558;BME280;60583;50.094;8.748;2023-04-10T09:14:20;101013.09;;;14.87;43.39
72558;BME280;60583;50.094;8.748;2023-04-10T09:16:47;101009.50;;;15.13;42.96
72558;BME280;60583;50.094;8.748;2023-04-10T09:19:12;101034.03;;;15.23;42.39
72558;BME280;60583;50.094;8.748;2023-04-10T09:21:38;101031.63;;;15.59;42.39
72558;BME280;60583;50.094;8.748;2023-04-10T09:24:03;101052.47;;;15.70;41.95
72558;BME280;60583;50.094;8.748;2023-04-10T09:26:31;101039.06;;;15.95;41.15
72558;BME280;60583;50.094;8.748;2023-04-10T09:31:32;100986.00;;;16.02;40.78
72558;BME280;60583;50.094;8.748;2023-04-10T09:34:13;101010.63;;;16.30;40.63
72558;BME280;60583;50.094;8.748;2023-04-10T09:36:40;101025.22;;;16.66;40.05
72558;BME280;60583;50.094;8.748;2023-04-10T09:39:07;101012.75;;;17.07;38.89
72558;BME280;60583;50.094;8.748;2023-04-10T09:41:33;101001.22;;;16.39;39.45
72558;BME280;60583;50.094;8.748;2023-04-10T09:44:08;100958.50;;;15.75;40.00
72558;BME280;60583;50.094;8.748;2023-04-10T09:46:34;100978.78;;;16.03;40.50
72558;BME280;60583;50.094;8.748;2023-04-10T09:49:00;101005.94;;;16.19;39.78
72558;BME280;60583;50.094;8.748;2023-04-10T09:51:30;100982.22;;;15.85;40.40
72558;BME280;60583;50.094;8.748;2023-04-10T09:53:56;100990.47;;;15.90;40.50
72558;BME280;60583;50.094;8.748;2023-04-10T09:56:22;100981.06;;;15.99;41.08
72558;BME280;60583;50.094;8.748;2023-04-10T09:58:50;100976.00;;;16.09;41.03
72558;BME280;60583;50.094;8.748;2023-04-10T10:01:18;100978.06;;;16.56;39.90
72558;BME280;60583;50.094;8.748;2023-04-10T10:03:44;100969.06;;;17.17;39.03
72558;BME280;60583;50.094;8.748;2023-04-10T10:06:10;100954.34;;;17.49;38.41
72558;BME280;60583;50.094;8.748;2023-04-10T10:08:36;100952.59;;;17.25;37.29
72558;BME280;60583;50.094;8.748;2023-04-10T10:11:03;100949.28;;;17.41;37.98
72558;BME280;60583;50.094;8.748;2023-04-10T10:13:52;100943.78;;;18.01;37.44
72558;BME280;60583;50.094;8.748;2023-04-10T10:16:31;100927.81;;;18.80;35.98
72558;BME280;60583;50.094;8.748;2023-04-10T10:19:05;100945.91;;;18.68;35.60
72558;BME280;60583;50.094;8.748;2023-04-10T10:21:31;100941.38;;;19.37;34.84
72558;BME280;60583;50.094;8.748;2023-04-10T10:24:00;100937.56;;;19.66;33.99
72558;BME280;60583;50.094;8.748;2023-04-10T10:26:27;100927.75;;;20.26;32.60
72558;BME280;60583;50.094;8.748;2023-04-10T10:28:55;100921.47;;;21.29;31.47
72558;BME280;60583;50.094;8.748;2023-04-10T10:31:20;100922.50;;;21.82;30.34
72558;BME280;60583;50.094;8.748;2023-04-10T10:33:52;100902.31;;;22.04;30.30
72558;BME280;60583;50.094;8.748;2023-04-10T10:36:19;100901.50;;;23.18;28.83
72558;BME280;60583;50.094;8.748;2023-04-10T10:38:56;100901.97;;;22.84;28.11
72558;BME280;60583;50.094;8.748;2023-04-10T10:41:31;100885.78;;;23.45;27.68
72558;BME280;60583;50.094;8.748;2023-04-10T10:44:20;100894.22;;;24.19;26.09
72558;BME280;60583;50.094;8.748;2023-04-10T10:47:16;100842.59;;;24.43;26.10
72558;BME280;60583;50.094;8.748;2023-04-10T10:49:56;100887.13;;;24.28;25.68
72558;BME280;60583;50.094;8.748;2023-04-10T10:52:42;100859.66;;;24.84;25.23
72558;BME280;60583;50.094;8.748;2023-04-10T10:58:00;100872.50;;;24.68;25.96
72558;BME280;60583;50.094;8.748;2023-04-10T11:05:59;100860.84;;;26.36;23.70
72558;BME280;60583;50.094;8.748;2023-04-10T11:11:03;100829.34;;;27.37;23.06
72558;BME280;60583;50.094;8.748;2023-04-10T11:13:34;100855.84;;;26.20;23.60
72558;BME280;60583;50.094;8.748;2023-04-10T11:16:01;100850.78;;;24.43;25.28
72558;BME280;60583;50.094;8.748;2023-04-10T11:21:12;100821.72;;;25.60;24.55
72558;BME280;60583;50.094;8.748;2023-04-10T11:31:55;100806.72;;;25.18;25.19
72558;BME280;60583;50.094;8.748;2023-04-10T11:34:21;100770.28;;;23.86;25.75
72558;BME280;60583;50.094;8.748;2023-04-10T11:36:46;100783.09;;;23.76;26.68
72558;BME280;60583;50.094;8.748;2023-04-10T11:39:13;100790.47;;;23.30;27.00
72558;BME280;60583;50.094;8.748;2023-04-10T11:41:45;100776.31;;;23.03;27.25
72558;BME280;60583;50.094;8.748;2023-04-10T11:44:28;100794.00;;;22.23;28.32
72558;BME280;60583;50.094;8.748;2023-04-10T11:46:54;100790.75;;;22.21;28.14
72558;BME280;60583;50.094;8.748;2023-04-10T11:49:21;100720.03;;;22.06;27.49
72558;BME280;60583;50.094;8.748;2023-04-10T11:51:48;100768.00;;;22.42;26.32
72558;BME280;60583;50.094;8.748;2023-04-10T11:54:19;100767.81;;;21.97;26.42
72558;BME280;60583;50.094;8.748;2023-04-10T11:57:06;100759.50;;;21.72;28.12
72558;BME280;60583;50.094;8.748;2023-04-10T11:59:34;100741.34;;;20.23;30.45
72558;BME280;60583;50.094;8.748;2023-04-10T12:02:07;100751.09;;;20.24;30.86
72558;BME280;60583;50.094;8.748;2023-04-10T12:04:34;100747.94;;;20.32;29.98
72558;BME280;60583;50.094;8.748;2023-04-10T12:07:00;100741.63;;;20.49;28.64
72558;BME280;60583;50.094;8.748;2023-04-10T12:09:25;100742.69;;;20.04;31.15
72558;BME280;60583;50.094;8.748;2023-04-10T12:12:01;100755.03;;;20.17;28.33
72558;BME280;60583;50.094;8.748;2023-04-10T12:14:46;100731.91;;;20.09;27.61
72558;BME280;60583;50.094;8.748;2023-04-10T12:17:11;100739.88;;;20.38;27.93
72558;BME280;60583;50.094;8.748;2023-04-10T12:19:38;100702.72;;;19.35;27.14
72558;BME280;60583;50.094;8.748;2023-04-10T12:22:03;100720.94;;;19.23;27.70
72558;BME280;60583;50.094;8.748;2023-04-10T12:24:43;100731.28;;;19.26;28.22
72558;BME280;60583;50.094;8.748;2023-04-10T12:27:19;100719.78;;;19.19;27.31
72558;BME280;60583;50.094;8.748;2023-04-10T12:29:46;100711.25;;;19.27;27.71
72558;BME280;60583;50.094;8.748;2023-04-10T12:32:12;100716.31;;;19.56;27.82
72558;BME280;60583;50.094;8.748;2023-04-10T12:34:38;100714.91;;;19.92;26.65
72558;BME280;60583;50.094;8.748;2023-04-10T12:37:05;100712.16;;;19.87;26.65
72558;BME280;60583;50.094;8.748;2023-04-10T12:39:30;100726.00;;;20.12;25.53
72558;BME280;60583;50.094;8.748;2023-04-10T12:42:16;100696.59;;;19.99;25.98
72558;BME280;60583;50.094;8.748;2023-04-10T12:44:52;100685.69;;;19.94;26.19
72558;BME280;60583;50.094;8.748;2023-04-10T12:47:18;100701.47;;;19.59;26.08
72558;BME280;60583;50.094;8.748;2023-04-10T12:50:10;100703.59;;;19.95;26.37
72558;BME280;60583;50.094;8.748;2023-04-10T12:52:38;100695.97;;;20.14;26.33
72558;BME280;60583;50.094;8.748;2023-04-10T12:55:18;100691.63;;;19.69;25.45
72558;BME280;60583;50.094;8.748;2023-04-10T12:57:47;100692.72;;;19.52;25.99
72558;BME280;60583;50.094;8.748;2023-04-10T13:00:17;100676.00;;;19.55;26.07
72558;BME280;60583;50.094;8.748;2023-04-10T13:02:44;100680.16;;;19.41;26.11
72558;BME280;60583;50.094;8.748;2023-04-10T13:05:10;100653.75;;;19.15;26.06
72558;BME280;60583;50.094;8.748;2023-04-10T13:07:36;100669.81;;;19.38;25.69
72558;BME280;60583;50.094;8.748;2023-04-10T13:10:01;100672.78;;;19.03;25.89
72558;BME280;60583;50.094;8.748;2023-04-10T13:12:27;100661.47;;;18.89;25.96
72558;BME280;60583;50.094;8.748;2023-04-10T13:14:54;100663.09;;;19.07;26.00
72558;BME280;60583;50.094;8.748;2023-04-10T13:17:21;100632.16;;;18.98;26.23
72558;BME280;60583;50.094;8.748;2023-04-10T13:19:47;100625.66;;;18.99;25.73
72558;BME280;60583;50.094;8.748;2023-04-10T13:22:13;100635.09;;;19.13;26.55
72558;BME280;60583;50.094;8.748;2023-04-10T13:24:38;100634.94;;;19.03;26.61
72558;BME280;60583;50.094;8.748;2023-04-10T13:27:04;100635.88;;;19.13;26.62
72558;BME280;60583;50.094;8.748;2023-04-10T13:29:29;100633.28;;;19.02;25.83
72558;BME280;60583;50.094;8.748;2023-04-10T13:31:55;100624.50;;;19.11;26.13
72558;BME280;60583;50.094;8.748;2023-04-10T13:34:20;100614.63;;;18.84;26.56
72558;BME280;60583;50.094;8.748;2023-04-10T13:36:46;100603.16;;;18.93;26.67